sensor_id;sensor_type;location;lat;lon;timestamp;P1;durP1;ratioP1;P2;durP2;ratioP2
14736;SDS011;7459;53.590;10.062;2023-03-03T00:01:21;27.90;;;12.68;;
14736;SDS011;7459;53.590;10.062;2023-03-03T00:03:51;29.27;;;12.63;;
14736;SDS011;7459;53.590;10.062;2023-03-03T00:06:17;35.50;;;13.52;;
14736;SDS011;7459;53.590;10.062;2023-03-03T00:08:44;36.85;;;13.85;;
14736;SDS011;7459;53.590;10.062;2023-03-03T00:11:10;35.30;;;13.63;;
14736;SDS011;7459;53.590;10.062;2023-03-03T00:13:46;38.37;;;13.57;;
14736;SDS011;7459;53.590;10.062;2023-03-03T00:18:49;43.58;;;13.73;;
14736;SDS011;7459;53.590;10.062;2023-03-03T00:21:24;38.60;;;13.27;;
14736;SDS011;7459;53.590;10.062;2023-03-03T00:26:54;32.33;;;12.37;;
14736;SDS011;7459;53.590;10.062;2023-03-03T00:29:35;37.72;;;12.93;;
14736;SDS011;7459;53.590;10.062;2023-03-03T00:32:22;39.90;;;12.70;;
14736;SDS011;7459;53.590;10.062;2023-03-03T00:34:51;38.05;;;12.52;;
14736;SDS011;7459;53.590;10.062;2023-03-03T00:40:38;31.10;;;11.53;;
14736;SDS011;7459;53.590;10.062;2023-03-03T00:42:53;38.13;;;14.80;;
14736;SDS011;7459;53.590;10.062;2023-03-03T00:45:33;40.88;;;13.40;;
14736;SDS011;7459;53.590;10.062;2023-03-03T00:51:01;35.97;;;13.02;;
14736;SDS011;7459;53.590;10.062;2023-03-03T00:53:54;31.67;;;12.73;;
14736;SDS011;7459;53.590;10.062;2023-03-03T00:56:21;31.50;;;12.75;;
14736;SDS011;7459;53.590;10.062;2023-03-03T00:58:47;36.47;;;13.10;;
14736;SDS011;7459;53.590;10.062;2023-03-03T01:01:14;34.85;;;13.38;;
14736;SDS011;7459;53.590;10.062;2023-03-03T01:03:40;31.98;;;12.98;;
14736;SDS011;7459;53.590;10.062;2023-03-03T01:06:06;32.73;;;11.60;;
14736;SDS011;7459;53.590;10.062;2023-03-03T01:08:32;31.75;;;12.63;;
14736;SDS011;7459;53.590;10.062;2023-03-03T01:10:59;32.33;;;11.50;;
14736;SDS011;7459;53.590;10.062;2023-03-03T01:13:32;31.05;;;12.80;;
14736;SDS011;7459;53.590;10.062;2023-03-03T01:16:00;27.67;;;11.52;;
14736;SDS011;7459;53.590;10.062;2023-03-03T01:18:27;34.38;;;11.95;;
14736;SDS011;7459;53.590;10.062;2023-03-03T01:20:53;38.15;;;12.13;;
14736;SDS011;7459;53.590;10.062;2023-03-03T01:23:19;32.13;;;12.00;;
14736;SDS011;7459;53.590;10.062;2023-03-03T01:25:45;41.38;;;12.43;;
14736;SDS011;7459;53.590;10.062;2023-03-03T01:28:11;28.73;;;13.03;;
14736;SDS011;7459;53.590;10.062;2023-03-03T01:30:37;32.30;;;12.35;;
14736;SDS011;7459;53.590;10.062;2023-03-03T01:33:02;37.58;;;13.07;;
14736;SDS011;7459;53.590;10.062;2023-03-03T01:35:28;26.65;;;11.15;;
14736;SDS011;7459;53.590;10.062;2023-03-03T01:37:54;27.85;;;11.75;;
14736;SDS011;7459;53.590;10.062;2023-03-03T01:40:22;31.42;;;13.07;;
14736;SDS011;7459;53.590;10.062;2023-03-03T01:42:51;35.95;;;12.73;;
14736;SDS011;7459;53.590;10.062;2023-03-03T01:47:59;32.72;;;12.75;;
14736;SDS011;7459;53.590;10.062;2023-03-03T01:53:28;40.23;;;10.67;;
14736;SDS011;7459;53.590;10.062;2023-03-03T01:56:08;37.15;;;11.55;;
14736;SDS011;7459;53.590;10.062;2023-03-03T01:58:35;28.70;;;11.50;;
14736;SDS011;7459;53.590;10.062;2023-03-03T02:01:10;38.10;;;11.98;;
14736;SDS011;7459;53.590;10.062;2023-03-03T02:03:39;38.30;;;12.75;;
14736;SDS011;7459;53.590;10.062;2023-03-03T02:06:07;29.37;;;10.53;;
14736;SDS011;7459;53.590;10.062;2023-03-03T02:08:48;34.45;;;11.70;;
14736;SDS011;7459;53.590;10.062;2023-03-03T02:11:23;32.75;;;12.88;;
14736;SDS011;7459;53.590;10.062;2023-03-03T02:13:49;32.70;;;12.15;;
14736;SDS011;7459;53.590;10.062;2023-03-03T02:16:15;34.27;;;12.23;;
14736;SDS011;7459;53.590;10.062;2023-03-03T02:18:40;31.17;;;11.10;;
14736;SDS011;7459;53.590;10.062;2023-03-03T02:21:10;28.53;;;12.07;;
14736;SDS011;7459;53.590;10.062;2023-03-03T02:23:52;41.35;;;12.23;;
14736;SDS011;7459;53.590;10.062;2023-03-03T02:26:34;31.60;;;11.98;;
14736;SDS011;7459;53.590;10.062;2023-03-03T02:29:05;32.50;;;11.98;;
14736;SDS011;7459;53.590;10.062;2023-03-03T02:31:31;27.45;;;11.70;;
14736;SDS011;7459;53.590;10.062;2023-03-03T02:33:57;29.98;;;11.82;;
14736;SDS011;7459;53.590;10.062;2023-03-03T02:38:59;38.42;;;11.23;;
14736;SDS011;7459;53.590;10.062;2023-03-03T02:41:49;35.17;;;12.02;;
14736;SDS011;7459;53.590;10.062;2023-03-03T02:44:25;30.27;;;10.83;;
14736;SDS011;7459;53.590;10.062;2023-03-03T02:46:54;28.75;;;11.25;;
14736;SDS011;7459;53.590;10.062;2023-03-03T02:49:22;25.17;;;10.77;;
14736;SDS011;7459;53.590;10.062;2023-03-03T02:51:50;32.63;;;11.10;;
14736;SDS011;7459;53.590;10.062;2023-03-03T02:54:18;32.20;;;10.18;;
14736;SDS011;7459;53.590;10.062;2023-03-03T02:56:47;30.43;;;10.57;;
14736;SDS011;7459;53.590;10.062;2023-03-03T02:59:13;32.75;;;10.68;;
14736;SDS011;7459;53.590;10.062;2023-03-03T03:04:09;29.48;;;11.00;;
14736;SDS011;7459;53.590;10.062;2023-03-03T03:06:40;30.15;;;10.85;;
14736;SDS011;7459;53.590;10.062;2023-03-03T03:09:07;26.47;;;10.80;;
14736;SDS011;7459;53.590;10.062;2023-03-03T03:11:34;22.95;;;10.30;;
14736;SDS011;7459;53.590;10.062;2023-03-03T03:14:01;26.25;;;11.88;;
14736;SDS011;7459;53.590;10.062;2023-03-03T03:16:28;24.25;;;9.60;;
14736;SDS011;7459;53.590;10.062;2023-03-03T03:18:55;26.50;;;11.30;;
14736;SDS011;7459;53.590;10.062;2023-03-03T03:21:21;27.30;;;10.67;;
14736;SDS011;7459;53.590;10.062;2023-03-03T03:23:47;29.85;;;10.98;;
14736;SDS011;7459;53.590;10.062;2023-03-03T03:26:13;26.30;;;10.07;;
14736;SDS011;7459;53.590;10.062;2023-03-03T03:28:39;27.40;;;10.80;;
14736;SDS011;7459;53.590;10.062;2023-03-03T03:31:05;22.63;;;10.30;;
14736;SDS011;7459;53.590;10.062;2023-03-03T03:33:33;28.53;;;11.07;;
14736;SDS011;7459;53.590;10.062;2023-03-03T03:35:59;27.08;;;10.57;;
14736;SDS011;7459;53.590;10.062;2023-03-03T03:38:26;28.60;;;10.77;;
14736;SDS011;7459;53.590;10.062;2023-03-03T03:40:53;28.20;;;9.55;;
14736;SDS011;7459;53.590;10.062;2023-03-03T03:43:20;26.42;;;9.60;;
14736;SDS011;7459;53.590;10.062;2023-03-03T03:45:46;23.67;;;10.17;;
14736;SDS011;7459;53.590;10.062;2023-03-03T03:48:12;27.02;;;9.75;;
14736;SDS011;7459;53.590;10.062;2023-03-03T03:50:38;29.10;;;10.93;;
14736;SDS011;7459;53.590;10.062;2023-03-03T03:53:04;25.80;;;10.13;;
14736;SDS011;7459;53.590;10.062;2023-03-03T03:55:30;24.55;;;10.80;;
14736;SDS011;7459;53.590;10.062;2023-03-03T03:57:57;27.40;;;11.13;;
14736;SDS011;7459;53.590;10.062;2023-03-03T04:00:22;27.67;;;11.30;;
14736;SDS011;7459;53.590;10.062;2023-03-03T04:02:49;22.73;;;10.75;;
14736;SDS011;7459;53.590;10.062;2023-03-03T04:05:15;24.85;;;10.55;;
14736;SDS011;7459;53.590;10.062;2023-03-03T04:07:41;24.88;;;11.00;;
14736;SDS011;7459;53.590;10.062;2023-03-03T04:10:07;24.97;;;10.73;;
14736;SDS011;7459;53.590;10.062;2023-03-03T04:12:34;21.27;;;9.25;;
14736;SDS011;7459;53.590;10.062;2023-03-03T04:15:09;24.90;;;10.52;;
14736;SDS011;7459;53.590;10.062;2023-03-03T04:17:36;23.75;;;9.93;;
14736;SDS011;7459;53.590;10.062;2023-03-03T04:20:03;22.80;;;11.15;;
14736;SDS011;7459;53.590;10.062;2023-03-03T04:22:30;36.92;;;10.77;;
14736;SDS011;7459;53.590;10.062;2023-03-03T04:24:58;25.45;;;9.18;;
14736;SDS011;7459;53.590;10.062;2023-03-03T04:27:24;26.33;;;10.98;;
14736;SDS011;7459;53.590;10.062;2023-03-03T04:29:50;23.87;;;10.70;;
14736;SDS011;7459;53.590;10.062;2023-03-03T04:32:16;26.42;;;10.50;;
14736;SDS011;7459;53.590;10.062;2023-03-03T04:34:42;23.60;;;10.50;;
14736;SDS011;7459;53.590;10.062;2023-03-03T04:37:08;21.07;;;9.90;;
14736;SDS011;7459;53.590;10.062;2023-03-03T04:39:34;25.20;;;9.60;;
14736;SDS011;7459;53.590;10.062;2023-03-03T04:42:00;24.17;;;10.90;;
14736;SDS011;7459;53.590;10.062;2023-03-03T04:44:26;21.13;;;9.07;;
14736;SDS011;7459;53.590;10.062;2023-03-03T04:46:51;28.70;;;10.73;;
14736;SDS011;7459;53.590;10.062;2023-03-03T04:49:17;23.87;;;9.30;;
14736;SDS011;7459;53.590;10.062;2023-03-03T04:51:43;24.15;;;10.75;;
14736;SDS011;7459;53.590;10.062;2023-03-03T04:54:09;24.93;;;9.47;;
14736;SDS011;7459;53.590;10.062;2023-03-03T04:56:34;26.13;;;9.23;;
14736;SDS011;7459;53.590;10.062;2023-03-03T04:59:00;22.13;;;9.70;;
14736;SDS011;7459;53.590;10.062;2023-03-03T05:01:26;27.05;;;10.95;;
14736;SDS011;7459;53.590;10.062;2023-03-03T05:03:52;20.70;;;9.20;;
14736;SDS011;7459;53.590;10.062;2023-03-03T05:06:17;25.33;;;10.20;;
14736;SDS011;7459;53.590;10.062;2023-03-03T05:08:44;23.63;;;10.30;;
14736;SDS011;7459;53.590;10.062;2023-03-03T05:11:10;21.27;;;10.47;;
14736;SDS011;7459;53.590;10.062;2023-03-03T05:13:36;24.85;;;9.70;;
14736;SDS011;7459;53.590;10.062;2023-03-03T05:16:01;27.65;;;9.85;;
14736;SDS011;7459;53.590;10.062;2023-03-03T05:18:28;26.70;;;10.20;;
14736;SDS011;7459;53.590;10.062;2023-03-03T05:20:53;24.13;;;10.02;;
14736;SDS011;7459;53.590;10.062;2023-03-03T05:23:19;24.57;;;10.90;;
14736;SDS011;7459;53.590;10.062;2023-03-03T05:25:46;25.33;;;10.50;;
14736;SDS011;7459;53.590;10.062;2023-03-03T05:28:13;21.27;;;9.88;;
14736;SDS011;7459;53.590;10.062;2023-03-03T05:30:39;23.33;;;9.40;;
14736;SDS011;7459;53.590;10.062;2023-03-03T05:33:05;25.88;;;9.93;;
14736;SDS011;7459;53.590;10.062;2023-03-03T05:35:30;26.38;;;10.65;;
14736;SDS011;7459;53.590;10.062;2023-03-03T05:37:57;20.40;;;9.25;;
14736;SDS011;7459;53.590;10.062;2023-03-03T05:40:23;25.67;;;10.53;;
14736;SDS011;7459;53.590;10.062;2023-03-03T05:42:52;29.05;;;10.35;;
14736;SDS011;7459;53.590;10.062;2023-03-03T05:45:18;23.67;;;10.23;;
14736;SDS011;7459;53.590;10.062;2023-03-03T05:47:45;33.00;;;11.00;;
14736;SDS011;7459;53.590;10.062;2023-03-03T05:50:12;21.90;;;9.90;;
14736;SDS011;7459;53.590;10.062;2023-03-03T05:52:38;18.95;;;9.60;;
14736;SDS011;7459;53.590;10.062;2023-03-03T05:55:04;23.20;;;10.40;;
14736;SDS011;7459;53.590;10.062;2023-03-03T05:57:31;23.73;;;10.00;;
14736;SDS011;7459;53.590;10.062;2023-03-03T05:59:56;24.10;;;10.05;;
14736;SDS011;7459;53.590;10.062;2023-03-03T06:02:22;25.73;;;10.70;;
14736;SDS011;7459;53.590;10.062;2023-03-03T06:04:48;24.73;;;11.02;;
14736;SDS011;7459;53.590;10.062;2023-03-03T06:07:13;23.23;;;10.00;;
14736;SDS011;7459;53.590;10.062;2023-03-03T06:09:39;23.15;;;10.70;;
14736;SDS011;7459;53.590;10.062;2023-03-03T06:12:05;23.30;;;9.45;;
14736;SDS011;7459;53.590;10.062;2023-03-03T06:14:31;24.65;;;9.63;;
14736;SDS011;7459;53.590;10.062;2023-03-03T06:16:57;26.00;;;9.77;;
14736;SDS011;7459;53.590;10.062;2023-03-03T06:19:22;24.48;;;9.93;;
14736;SDS011;7459;53.590;10.062;2023-03-03T06:21:48;23.08;;;10.15;;
14736;SDS011;7459;53.590;10.062;2023-03-03T06:24:14;25.30;;;10.43;;
14736;SDS011;7459;53.590;10.062;2023-03-03T06:26:40;23.58;;;10.23;;
14736;SDS011;7459;53.590;10.062;2023-03-03T06:29:05;19.77;;;9.87;;
14736;SDS011;7459;53.590;10.062;2023-03-03T06:31:31;22.08;;;9.27;;
14736;SDS011;7459;53.590;10.062;2023-03-03T06:33:57;22.00;;;9.88;;
14736;SDS011;7459;53.590;10.062;2023-03-03T06:36:23;21.60;;;9.53;;
14736;SDS011;7459;53.590;10.062;2023-03-03T06:38:49;23.35;;;10.02;;
14736;SDS011;7459;53.590;10.062;2023-03-03T06:41:15;20.05;;;8.90;;
14736;SDS011;7459;53.590;10.062;2023-03-03T06:43:41;21.00;;;9.07;;
14736;SDS011;7459;53.590;10.062;2023-03-03T06:46:07;24.63;;;9.48;;
14736;SDS011;7459;53.590;10.062;2023-03-03T06:48:32;20.10;;;8.50;;
14736;SDS011;7459;53.590;10.062;2023-03-03T06:50:59;19.20;;;9.13;;
14736;SDS011;7459;53.590;10.062;2023-03-03T06:53:27;19.23;;;8.40;;
14736;SDS011;7459;53.590;10.062;2023-03-03T06:55:56;22.80;;;9.23;;
14736;SDS011;7459;53.590;10.062;2023-03-03T06:58:22;22.83;;;8.67;;
14736;SDS011;7459;53.590;10.062;2023-03-03T07:00:56;20.08;;;8.90;;
14736;SDS011;7459;53.590;10.062;2023-03-03T07:03:25;21.73;;;9.23;;
14736;SDS011;7459;53.590;10.062;2023-03-03T07:05:57;23.55;;;8.23;;
14736;SDS011;7459;53.590;10.062;2023-03-03T07:08:23;21.13;;;8.97;;
14736;SDS011;7459;53.590;10.062;2023-03-03T07:10:50;22.38;;;8.85;;
14736;SDS011;7459;53.590;10.062;2023-03-03T07:13:18;22.50;;;8.60;;
14736;SDS011;7459;53.590;10.062;2023-03-03T07:15:48;19.92;;;9.40;;
14736;SDS011;7459;53.590;10.062;2023-03-03T07:21:03;26.47;;;9.03;;
14736;SDS011;7459;53.590;10.062;2023-03-03T07:23:40;18.40;;;7.95;;
14736;SDS011;7459;53.590;10.062;2023-03-03T07:26:10;23.23;;;8.70;;
14736;SDS011;7459;53.590;10.062;2023-03-03T07:28:42;19.35;;;8.50;;
14736;SDS011;7459;53.590;10.062;2023-03-03T07:31:24;21.85;;;9.70;;
14736;SDS011;7459;53.590;10.062;2023-03-03T07:33:59;19.87;;;7.90;;
14736;SDS011;7459;53.590;10.062;2023-03-03T07:36:28;18.80;;;8.70;;
14736;SDS011;7459;53.590;10.062;2023-03-03T07:39:23;18.52;;;9.85;;
14736;SDS011;7459;53.590;10.062;2023-03-03T07:42:40;19.75;;;7.45;;
14736;SDS011;7459;53.590;10.062;2023-03-03T07:44:59;20.95;;;8.13;;
14736;SDS011;7459;53.590;10.062;2023-03-03T07:47:27;16.27;;;6.93;;
14736;SDS011;7459;53.590;10.062;2023-03-03T07:49:56;15.77;;;6.70;;
14736;SDS011;7459;53.590;10.062;2023-03-03T07:52:36;13.93;;;7.32;;
14736;SDS011;7459;53.590;10.062;2023-03-03T08:03:03;18.38;;;7.95;;
14736;SDS011;7459;53.590;10.062;2023-03-03T08:05:37;20.85;;;8.35;;
14736;SDS011;7459;53.590;10.062;2023-03-03T08:10:54;17.58;;;8.18;;
14736;SDS011;7459;53.590;10.062;2023-03-03T08:13:28;16.47;;;6.90;;
14736;SDS011;7459;53.590;10.062;2023-03-03T08:18:35;17.30;;;7.20;;
14736;SDS011;7459;53.590;10.062;2023-03-03T08:21:04;15.75;;;7.25;;
14736;SDS011;7459;53.590;10.062;2023-03-03T08:23:38;17.88;;;7.65;;
14736;SDS011;7459;53.590;10.062;2023-03-03T08:26:04;16.17;;;6.70;;
14736;SDS011;7459;53.590;10.062;2023-03-03T08:28:31;20.08;;;6.80;;
14736;SDS011;7459;53.590;10.062;2023-03-03T08:30:56;16.40;;;6.90;;
14736;SDS011;7459;53.590;10.062;2023-03-03T08:33:22;16.23;;;7.00;;
14736;SDS011;7459;53.590;10.062;2023-03-03T08:35:48;15.35;;;7.32;;
14736;SDS011;7459;53.590;10.062;2023-03-03T08:38:15;15.05;;;7.03;;
14736;SDS011;7459;53.590;10.062;2023-03-03T08:40:44;16.05;;;6.53;;
14736;SDS011;7459;53.590;10.062;2023-03-03T08:43:11;14.60;;;6.63;;
14736;SDS011;7459;53.590;10.062;2023-03-03T08:45:45;17.00;;;7.68;;
14736;SDS011;7459;53.590;10.062;2023-03-03T08:48:13;14.20;;;7.57;;
14736;SDS011;7459;53.590;10.062;2023-03-03T08:50:40;15.90;;;7.10;;
14736;SDS011;7459;53.590;10.062;2023-03-03T08:53:06;13.60;;;6.28;;
14736;SDS011;7459;53.590;10.062;2023-03-03T08:55:32;13.07;;;5.95;;
14736;SDS011;7459;53.590;10.062;2023-03-03T08:57:58;11.68;;;5.47;;
14736;SDS011;7459;53.590;10.062;2023-03-03T09:00:24;12.02;;;5.35;;
14736;SDS011;7459;53.590;10.062;2023-03-03T09:02:50;10.45;;;5.40;;
14736;SDS011;7459;53.590;10.062;2023-03-03T09:05:17;12.20;;;5.80;;
14736;SDS011;7459;53.590;10.062;2023-03-03T09:07:45;12.77;;;5.70;;
14736;SDS011;7459;53.590;10.062;2023-03-03T09:10:12;12.93;;;5.45;;
14736;SDS011;7459;53.590;10.062;2023-03-03T09:12:45;11.85;;;5.25;;
14736;SDS011;7459;53.590;10.062;2023-03-03T09:15:22;12.80;;;5.32;;
14736;SDS011;7459;53.590;10.062;2023-03-03T09:17:58;12.70;;;5.88;;
14736;SDS011;7459;53.590;10.062;2023-03-03T09:20:36;14.53;;;5.30;;
14736;SDS011;7459;53.590;10.062;2023-03-03T09:23:23;14.02;;;6.18;;
14736;SDS011;7459;53.590;10.062;2023-03-03T09:25:53;11.27;;;5.45;;
14736;SDS011;7459;53.590;10.062;2023-03-03T09:30:56;16.35;;;6.15;;
14736;SDS011;7459;53.590;10.062;2023-03-03T09:33:30;15.53;;;5.73;;
14736;SDS011;7459;53.590;10.062;2023-03-03T09:38:54;11.23;;;6.07;;
14736;SDS011;7459;53.590;10.062;2023-03-03T09:47:46;15.20;;;7.00;;
14736;SDS011;7459;53.590;10.062;2023-03-03T10:01:58;14.93;;;7.30;;
14736;SDS011;7459;53.590;10.062;2023-03-03T10:04:57;14.63;;;5.53;;
14736;SDS011;7459;53.590;10.062;2023-03-03T10:22:53;21.85;;;8.45;;
14736;SDS011;7459;53.590;10.062;2023-03-03T10:31:22;32.60;;;12.00;;
14736;SDS011;7459;53.590;10.062;2023-03-03T10:41:25;33.22;;;12.68;;
14736;SDS011;7459;53.590;10.062;2023-03-03T10:47:32;25.80;;;10.27;;
14736;SDS011;7459;53.590;10.062;2023-03-03T10:59:05;25.35;;;9.30;;
14736;SDS011;7459;53.590;10.062;2023-03-03T11:01:56;24.00;;;9.63;;
14736;SDS011;7459;53.590;10.062;2023-03-03T11:12:49;22.00;;;8.18;;
14736;SDS011;7459;53.590;10.062;2023-03-03T11:15:27;24.30;;;9.23;;
14736;SDS011;7459;53.590;10.062;2023-03-03T11:18:09;19.83;;;8.35;;
14736;SDS011;7459;53.590;10.062;2023-03-03T11:21:06;22.13;;;9.45;;
14736;SDS011;7459;53.590;10.062;2023-03-03T11:29:33;22.97;;;9.73;;
14736;SDS011;7459;53.590;10.062;2023-03-03T11:32:09;21.90;;;9.27;;
14736;SDS011;7459;53.590;10.062;2023-03-03T11:43:51;22.87;;;8.83;;
14736;SDS011;7459;53.590;10.062;2023-03-03T11:46:33;23.15;;;10.07;;
14736;SDS011;7459;53.590;10.062;2023-03-03T11:49:24;26.40;;;10.93;;
14736;SDS011;7459;53.590;10.062;2023-03-03T11:52:02;27.30;;;10.45;;
14736;SDS011;7459;53.590;10.062;2023-03-03T11:54:53;27.77;;;11.13;;
14736;SDS011;7459;53.590;10.062;2023-03-03T11:57:51;23.83;;;10.03;;
14736;SDS011;7459;53.590;10.062;2023-03-03T12:00:33;23.60;;;10.35;;
14736;SDS011;7459;53.590;10.062;2023-03-03T12:03:10;27.48;;;11.15;;
14736;SDS011;7459;53.590;10.062;2023-03-03T12:08:40;23.65;;;9.80;;
14736;SDS011;7459;53.590;10.062;2023-03-03T12:11:19;25.63;;;9.97;;
14736;SDS011;7459;53.590;10.062;2023-03-03T12:17:21;20.40;;;8.93;;
14736;SDS011;7459;53.590;10.062;2023-03-03T12:20:17;25.85;;;9.57;;
14736;SDS011;7459;53.590;10.062;2023-03-03T12:26:12;22.53;;;8.53;;
14736;SDS011;7459;53.590;10.062;2023-03-03T12:28:49;21.60;;;9.52;;
14736;SDS011;7459;53.590;10.062;2023-03-03T12:34:51;22.58;;;9.35;;
14736;SDS011;7459;53.590;10.062;2023-03-03T12:37:54;23.02;;;8.80;;
14736;SDS011;7459;53.590;10.062;2023-03-03T12:40:40;18.93;;;7.67;;
14736;SDS011;7459;53.590;10.062;2023-03-03T12:46:39;17.25;;;7.05;;
14736;SDS011;7459;53.590;10.062;2023-03-03T12:49:19;19.92;;;6.75;;
14736;SDS011;7459;53.590;10.062;2023-03-03T12:52:01;17.75;;;6.32;;
14736;SDS011;7459;53.590;10.062;2023-03-03T12:55:10;17.13;;;6.47;;
14736;SDS011;7459;53.590;10.062;2023-03-03T12:57:58;20.67;;;7.50;;
14736;SDS011;7459;53.590;10.062;2023-03-03T13:06:27;16.00;;;5.13;;
14736;SDS011;7459;53.590;10.062;2023-03-03T13:09:11;16.90;;;5.73;;
14736;SDS011;7459;53.590;10.062;2023-03-03T13:14:51;13.07;;;4.93;;
14736;SDS011;7459;53.590;10.062;2023-03-03T13:20:34;12.57;;;3.60;;
14736;SDS011;7459;53.590;10.062;2023-03-03T13:23:38;14.83;;;3.53;;
14736;SDS011;7459;53.590;10.062;2023-03-03T13:28:56;7.55;;;3.22;;
14736;SDS011;7459;53.590;10.062;2023-03-03T13:31:42;8.50;;;3.05;;
14736;SDS011;7459;53.590;10.062;2023-03-03T13:34:19;8.13;;;2.97;;
14736;SDS011;7459;53.590;10.062;2023-03-03T13:36:51;8.53;;;2.67;;
14736;SDS011;7459;53.590;10.062;2023-03-03T13:39:24;5.22;;;2.03;;
14736;SDS011;7459;53.590;10.062;2023-03-03T13:41:56;4.65;;;1.88;;
14736;SDS011;7459;53.590;10.062;2023-03-03T13:44:35;3.95;;;1.30;;
14736;SDS011;7459;53.590;10.062;2023-03-03T13:49:58;2.50;;;1.40;;
14736;SDS011;7459;53.590;10.062;2023-03-03T13:52:56;5.25;;;1.30;;
14736;SDS011;7459;53.590;10.062;2023-03-03T14:01:16;6.55;;;1.52;;
14736;SDS011;7459;53.590;10.062;2023-03-03T14:04:12;9.63;;;1.67;;
14736;SDS011;7459;53.590;10.062;2023-03-03T14:06:53;5.90;;;1.27;;
14736;SDS011;7459;53.590;10.062;2023-03-03T14:12:39;3.03;;;1.58;;
14736;SDS011;7459;53.590;10.062;2023-03-03T14:15:51;3.45;;;1.10;;
14736;SDS011;7459;53.590;10.062;2023-03-03T14:18:27;5.90;;;1.13;;
14736;SDS011;7459;53.590;10.062;2023-03-03T14:21:13;5.25;;;1.23;;
14736;SDS011;7459;53.590;10.062;2023-03-03T14:26:43;4.63;;;1.02;;
14736;SDS011;7459;53.590;10.062;2023-03-03T14:31:49;5.60;;;1.00;;
14736;SDS011;7459;53.590;10.062;2023-03-03T14:36:47;3.38;;;0.82;;
14736;SDS011;7459;53.590;10.062;2023-03-03T14:39:29;3.42;;;0.93;;
14736;SDS011;7459;53.590;10.062;2023-03-03T14:42:29;4.63;;;1.10;;
14736;SDS011;7459;53.590;10.062;2023-03-03T14:44:59;4.03;;;0.87;;
14736;SDS011;7459;53.590;10.062;2023-03-03T14:47:42;6.40;;;1.15;;
14736;SDS011;7459;53.590;10.062;2023-03-03T14:50:27;3.13;;;1.00;;
14736;SDS011;7459;53.590;10.062;2023-03-03T14:55:39;5.95;;;1.13;;
14736;SDS011;7459;53.590;10.062;2023-03-03T14:58:30;3.50;;;1.03;;
14736;SDS011;7459;53.590;10.062;2023-03-03T15:06:49;4.55;;;1.13;;
14736;SDS011;7459;53.590;10.062;2023-03-03T15:09:36;5.53;;;1.13;;
14736;SDS011;7459;53.590;10.062;2023-03-03T15:12:22;5.70;;;1.10;;
14736;SDS011;7459;53.590;10.062;2023-03-03T15:17:35;4.85;;;1.42;;
14736;SDS011;7459;53.590;10.062;2023-03-03T15:20:21;4.32;;;0.85;;
14736;SDS011;7459;53.590;10.062;2023-03-03T15:31:08;4.32;;;1.00;;
14736;SDS011;7459;53.590;10.062;2023-03-03T15:37:04;5.75;;;1.65;;
14736;SDS011;7459;53.590;10.062;2023-03-03T15:40:11;2.70;;;0.87;;
14736;SDS011;7459;53.590;10.062;2023-03-03T15:42:56;5.85;;;1.77;;
14736;SDS011;7459;53.590;10.062;2023-03-03T15:48:52;5.70;;;1.13;;
14736;SDS011;7459;53.590;10.062;2023-03-03T15:52:09;4.80;;;1.30;;
14736;SDS011;7459;53.590;10.062;2023-03-03T15:54:58;9.53;;;1.40;;
14736;SDS011;7459;53.590;10.062;2023-03-03T15:57:56;3.97;;;1.20;;
14736;SDS011;7459;53.590;10.062;2023-03-03T16:13:06;7.63;;;1.38;;
14736;SDS011;7459;53.590;10.062;2023-03-03T16:16:06;13.95;;;1.55;;
14736;SDS011;7459;53.590;10.062;2023-03-03T16:18:50;8.48;;;1.80;;
14736;SDS011;7459;53.590;10.062;2023-03-03T16:24:22;8.83;;;0.93;;
14736;SDS011;7459;53.590;10.062;2023-03-03T16:27:15;8.60;;;1.50;;
14736;SDS011;7459;53.590;10.062;2023-03-03T16:35:18;11.57;;;1.38;;
14736;SDS011;7459;53.590;10.062;2023-03-03T16:37:59;11.83;;;1.90;;
14736;SDS011;7459;53.590;10.062;2023-03-03T16:40:37;10.68;;;1.73;;
14736;SDS011;7459;53.590;10.062;2023-03-03T16:45:57;13.88;;;1.55;;
14736;SDS011;7459;53.590;10.062;2023-03-03T16:48:50;11.98;;;1.35;;
14736;SDS011;7459;53.590;10.062;2023-03-03T17:05:41;10.17;;;1.30;;
14736;SDS011;7459;53.590;10.062;2023-03-03T17:08:22;9.00;;;1.65;;
14736;SDS011;7459;53.590;10.062;2023-03-03T17:22:24;14.48;;;1.80;;
14736;SDS011;7459;53.590;10.062;2023-03-03T17:31:08;15.57;;;2.03;;
14736;SDS011;7459;53.590;10.062;2023-03-03T17:33:48;10.63;;;2.00;;
14736;SDS011;7459;53.590;10.062;2023-03-03T17:36:49;11.70;;;1.83;;
14736;SDS011;7459;53.590;10.062;2023-03-03T17:40:04;11.20;;;2.13;;
14736;SDS011;7459;53.590;10.062;2023-03-03T17:43:05;17.85;;;2.30;;
14736;SDS011;7459;53.590;10.062;2023-03-03T17:45:42;12.35;;;1.80;;
14736;SDS011;7459;53.590;10.062;2023-03-03T17:57:41;12.93;;;2.38;;
14736;SDS011;7459;53.590;10.062;2023-03-03T18:00:18;15.07;;;2.10;;
14736;SDS011;7459;53.590;10.062;2023-03-03T18:23:33;12.13;;;2.03;;
14736;SDS011;7459;53.590;10.062;2023-03-03T18:31:45;16.30;;;2.13;;
14736;SDS011;7459;53.590;10.062;2023-03-03T18:40:13;8.68;;;1.75;;
14736;SDS011;7459;53.590;10.062;2023-03-03T18:42:33;15.38;;;2.72;;
14736;SDS011;7459;53.590;10.062;2023-03-03T18:48:01;12.63;;;2.15;;
14736;SDS011;7459;53.590;10.062;2023-03-03T18:50:35;14.05;;;2.13;;
14736;SDS011;7459;53.590;10.062;2023-03-03T18:53:06;13.85;;;2.47;;
14736;SDS011;7459;53.590;10.062;2023-03-03T18:55:58;9.85;;;2.00;;
14736;SDS011;7459;53.590;10.062;2023-03-03T18:58:30;18.73;;;2.47;;
14736;SDS011;7459;53.590;10.062;2023-03-03T19:06:27;14.40;;;2.13;;
14736;SDS011;7459;53.590;10.062;2023-03-03T19:09:02;20.90;;;2.25;;
14736;SDS011;7459;53.590;10.062;2023-03-03T19:11:40;11.27;;;1.77;;
14736;SDS011;7459;53.590;10.062;2023-03-03T19:16:50;16.20;;;2.55;;
14736;SDS011;7459;53.590;10.062;2023-03-03T19:19:19;18.50;;;2.97;;
14736;SDS011;7459;53.590;10.062;2023-03-03T19:22:12;10.30;;;2.45;;
14736;SDS011;7459;53.590;10.062;2023-03-03T19:25:52;22.63;;;3.43;;
14736;SDS011;7459;53.590;10.062;2023-03-03T19:31:01;10.60;;;2.67;;
14736;SDS011;7459;53.590;10.062;2023-03-03T19:39:42;21.27;;;3.47;;
14736;SDS011;7459;53.590;10.062;2023-03-03T19:45:06;18.60;;;2.83;;
14736;SDS011;7459;53.590;10.062;2023-03-03T19:47:45;15.15;;;2.60;;
14736;SDS011;7459;53.590;10.062;2023-03-03T19:53:14;18.27;;;2.47;;
14736;SDS011;7459;53.590;10.062;2023-03-03T19:56:17;15.80;;;2.40;;
14736;SDS011;7459;53.590;10.062;2023-03-03T19:58:56;14.05;;;1.73;;
14736;SDS011;7459;53.590;10.062;2023-03-03T20:04:55;19.48;;;2.50;;
14736;SDS011;7459;53.590;10.062;2023-03-03T20:13:25;12.05;;;2.30;;
14736;SDS011;7459;53.590;10.062;2023-03-03T20:16:22;18.15;;;2.53;;
14736;SDS011;7459;53.590;10.062;2023-03-03T20:21:46;21.53;;;2.80;;
14736;SDS011;7459;53.590;10.062;2023-03-03T20:24:39;21.90;;;2.95;;
14736;SDS011;7459;53.590;10.062;2023-03-03T20:27:33;14.52;;;2.17;;
14736;SDS011;7459;53.590;10.062;2023-03-03T20:30:40;11.90;;;2.47;;
14736;SDS011;7459;53.590;10.062;2023-03-03T20:45:40;11.60;;;2.80;;
14736;SDS011;7459;53.590;10.062;2023-03-03T20:54:13;18.92;;;2.67;;
14736;SDS011;7459;53.590;10.062;2023-03-03T21:03:09;14.77;;;2.47;;
14736;SDS011;7459;53.590;10.062;2023-03-03T21:05:57;12.17;;;2.73;;
14736;SDS011;7459;53.590;10.062;2023-03-03T21:11:38;16.10;;;2.85;;
14736;SDS011;7459;53.590;10.062;2023-03-03T21:17:10;16.60;;;3.53;;
14736;SDS011;7459;53.590;10.062;2023-03-03T21:19:52;14.67;;;2.50;;